sensor_id;sensor_type;location;lat;lon;timestamp;P1;durP1;ratioP1;P2;durP2;ratioP2
18905;SDS011;9585;51.018;4.282;2023-05-10T00:00:12;11.13;;;6.00;;
18905;SDS011;9585;51.018;4.282;2023-05-10T00:02:39;7.82;;;5.63;;
18905;SDS011;9585;51.018;4.282;2023-05-10T00:05:08;8.05;;;5.30;;
18905;SDS011;9585;51.018;4.282;2023-05-10T00:07:36;7.40;;;5.53;;
18905;SDS011;9585;51.018;4.282;2023-05-10T00:10:03;12.18;;;6.28;;
18905;SDS011;9585;51.018;4.282;2023-05-10T00:12:31;8.80;;;5.88;;
18905;SDS011;9585;51.018;4.282;2023-05-10T00:14:58;12.45;;;7.22;;
18905;SDS011;9585;51.018;4.282;2023-05-10T00:17:26;9.88;;;6.75;;
18905;SDS011;9585;51.018;4.282;2023-05-10T00:19:54;9.32;;;6.10;;
18905;SDS011;9585;51.018;4.282;2023-05-10T00:22:23;14.10;;;7.57;;
18905;SDS011;9585;51.018;4.282;2023-05-10T00:24:50;9.50;;;6.80;;
18905;SDS011;9585;51.018;4.282;2023-05-10T00:27:18;12.02;;;6.95;;
18905;SDS011;9585;51.018;4.282;2023-05-10T00:29:45;13.77;;;7.28;;
18905;SDS011;9585;51.018;4.282;2023-05-10T00:32:12;9.45;;;7.57;;
18905;SDS011;9585;51.018;4.282;2023-05-10T00:34:40;11.38;;;7.32;;
18905;SDS011;9585;51.018;4.282;2023-05-10T00:37:07;14.57;;;8.05;;
18905;SDS011;9585;51.018;4.282;2023-05-10T00:39:36;10.70;;;7.22;;
18905;SDS011;9585;51.018;4.282;2023-05-10T00:42:03;10.35;;;6.88;;
18905;SDS011;9585;51.018;4.282;2023-05-10T00:44:31;9.32;;;7.18;;
18905;SDS011;9585;51.018;4.282;2023-05-10T00:46:58;12.52;;;7.43;;
18905;SDS011;9585;51.018;4.282;2023-05-10T00:49:26;11.65;;;7.60;;
18905;SDS011;9585;51.018;4.282;2023-05-10T00:51:54;9.15;;;6.70;;
18905;SDS011;9585;51.018;4.282;2023-05-10T00:54:22;9.80;;;5.97;;
18905;SDS011;9585;51.018;4.282;2023-05-10T00:56:52;13.13;;;7.55;;
18905;SDS011;9585;51.018;4.282;2023-05-10T00:59:19;11.63;;;7.38;;
18905;SDS011;9585;51.018;4.282;2023-05-10T01:01:47;10.38;;;7.60;;
18905;SDS011;9585;51.018;4.282;2023-05-10T01:04:16;10.15;;;7.60;;
18905;SDS011;9585;51.018;4.282;2023-05-10T01:06:45;10.75;;;7.70;;
18905;SDS011;9585;51.018;4.282;2023-05-10T01:09:12;11.52;;;7.72;;
18905;SDS011;9585;51.018;4.282;2023-05-10T01:11:40;10.10;;;7.50;;
18905;SDS011;9585;51.018;4.282;2023-05-10T01:14:10;8.80;;;6.72;;
18905;SDS011;9585;51.018;4.282;2023-05-10T01:16:40;10.90;;;6.70;;
18905;SDS011;9585;51.018;4.282;2023-05-10T01:19:11;8.48;;;6.13;;
18905;SDS011;9585;51.018;4.282;2023-05-10T01:21:46;9.73;;;7.10;;
18905;SDS011;9585;51.018;4.282;2023-05-10T01:24:34;11.15;;;6.97;;
18905;SDS011;9585;51.018;4.282;2023-05-10T01:34:00;12.68;;;7.22;;
18905;SDS011;9585;51.018;4.282;2023-05-10T01:36:35;9.10;;;6.93;;
18905;SDS011;9585;51.018;4.282;2023-05-10T01:39:09;9.90;;;7.25;;
18905;SDS011;9585;51.018;4.282;2023-05-10T01:41:44;12.27;;;7.43;;
18905;SDS011;9585;51.018;4.282;2023-05-10T01:44:20;14.32;;;7.47;;
18905;SDS011;9585;51.018;4.282;2023-05-10T01:46:57;10.05;;;7.38;;
18905;SDS011;9585;51.018;4.282;2023-05-10T01:49:34;11.30;;;7.55;;
18905;SDS011;9585;51.018;4.282;2023-05-10T01:52:08;11.70;;;8.30;;
18905;SDS011;9585;51.018;4.282;2023-05-10T01:54:38;12.93;;;8.18;;
18905;SDS011;9585;51.018;4.282;2023-05-10T01:57:11;13.73;;;9.18;;
18905;SDS011;9585;51.018;4.282;2023-05-10T01:59:40;11.32;;;7.85;;
18905;SDS011;9585;51.018;4.282;2023-05-10T02:02:12;12.60;;;8.48;;
18905;SDS011;9585;51.018;4.282;2023-05-10T02:04:42;13.40;;;8.57;;
18905;SDS011;9585;51.018;4.282;2023-05-10T02:07:11;13.07;;;9.18;;
18905;SDS011;9585;51.018;4.282;2023-05-10T02:09:40;14.98;;;9.75;;
18905;SDS011;9585;51.018;4.282;2023-05-10T02:12:12;14.15;;;10.27;;
18905;SDS011;9585;51.018;4.282;2023-05-10T02:14:41;14.30;;;10.43;;
18905;SDS011;9585;51.018;4.282;2023-05-10T02:17:10;13.95;;;9.77;;
18905;SDS011;9585;51.018;4.282;2023-05-10T02:19:40;16.73;;;10.50;;
18905;SDS011;9585;51.018;4.282;2023-05-10T02:22:10;13.30;;;10.07;;
18905;SDS011;9585;51.018;4.282;2023-05-10T02:24:39;16.60;;;11.10;;
18905;SDS011;9585;51.018;4.282;2023-05-10T02:27:08;17.05;;;11.00;;
18905;SDS011;9585;51.018;4.282;2023-05-10T02:29:38;13.40;;;10.00;;
18905;SDS011;9585;51.018;4.282;2023-05-10T02:32:06;16.73;;;11.23;;
18905;SDS011;9585;51.018;4.282;2023-05-10T02:34:36;16.80;;;11.40;;
18905;SDS011;9585;51.018;4.282;2023-05-10T02:37:06;16.40;;;11.48;;
18905;SDS011;9585;51.018;4.282;2023-05-10T02:39:34;19.10;;;13.20;;
18905;SDS011;9585;51.018;4.282;2023-05-10T02:42:03;19.30;;;14.05;;
18905;SDS011;9585;51.018;4.282;2023-05-10T02:44:33;18.85;;;13.10;;
18905;SDS011;9585;51.018;4.282;2023-05-10T02:47:02;18.70;;;12.95;;
18905;SDS011;9585;51.018;4.282;2023-05-10T02:49:38;16.77;;;12.55;;
18905;SDS011;9585;51.018;4.282;2023-05-10T02:52:09;18.83;;;13.65;;
18905;SDS011;9585;51.018;4.282;2023-05-10T02:54:41;24.17;;;14.70;;
18905;SDS011;9585;51.018;4.282;2023-05-10T02:57:13;22.00;;;14.32;;
18905;SDS011;9585;51.018;4.282;2023-05-10T02:59:45;20.95;;;13.63;;
18905;SDS011;9585;51.018;4.282;2023-05-10T03:02:14;20.65;;;14.27;;
18905;SDS011;9585;51.018;4.282;2023-05-10T03:04:44;17.52;;;13.10;;
18905;SDS011;9585;51.018;4.282;2023-05-10T03:07:17;19.65;;;13.82;;
18905;SDS011;9585;51.018;4.282;2023-05-10T03:09:47;23.92;;;14.90;;
18905;SDS011;9585;51.018;4.282;2023-05-10T03:12:23;23.45;;;16.20;;
18905;SDS011;9585;51.018;4.282;2023-05-10T03:15:00;23.15;;;15.68;;
18905;SDS011;9585;51.018;4.282;2023-05-10T03:17:40;22.40;;;15.75;;
18905;SDS011;9585;51.018;4.282;2023-05-10T03:20:24;23.15;;;17.10;;
18905;SDS011;9585;51.018;4.282;2023-05-10T03:23:00;25.95;;;17.30;;
18905;SDS011;9585;51.018;4.282;2023-05-10T03:25:32;28.27;;;17.27;;
18905;SDS011;9585;51.018;4.282;2023-05-10T03:28:01;25.35;;;16.40;;
18905;SDS011;9585;51.018;4.282;2023-05-10T03:30:30;25.13;;;15.52;;
18905;SDS011;9585;51.018;4.282;2023-05-10T03:33:02;25.15;;;16.95;;
18905;SDS011;9585;51.018;4.282;2023-05-10T03:35:34;25.25;;;16.40;;
18905;SDS011;9585;51.018;4.282;2023-05-10T03:38:03;27.40;;;16.92;;
18905;SDS011;9585;51.018;4.282;2023-05-10T03:40:33;24.17;;;16.35;;
18905;SDS011;9585;51.018;4.282;2023-05-10T03:43:01;26.70;;;16.50;;
18905;SDS011;9585;51.018;4.282;2023-05-10T03:45:28;26.83;;;17.08;;
18905;SDS011;9585;51.018;4.282;2023-05-10T03:47:56;24.75;;;16.10;;
18905;SDS011;9585;51.018;4.282;2023-05-10T03:50:24;31.75;;;16.95;;
18905;SDS011;9585;51.018;4.282;2023-05-10T03:52:52;28.27;;;16.85;;
18905;SDS011;9585;51.018;4.282;2023-05-10T03:55:22;24.75;;;16.25;;
18905;SDS011;9585;51.018;4.282;2023-05-10T03:57:50;23.55;;;15.75;;
18905;SDS011;9585;51.018;4.282;2023-05-10T04:00:19;27.67;;;16.60;;
18905;SDS011;9585;51.018;4.282;2023-05-10T04:02:47;26.95;;;16.33;;
18905;SDS011;9585;51.018;4.282;2023-05-10T04:05:15;28.35;;;17.50;;
18905;SDS011;9585;51.018;4.282;2023-05-10T04:07:52;26.75;;;17.02;;
18905;SDS011;9585;51.018;4.282;2023-05-10T04:10:21;28.65;;;17.85;;
18905;SDS011;9585;51.018;4.282;2023-05-10T04:12:49;23.73;;;16.23;;
18905;SDS011;9585;51.018;4.282;2023-05-10T04:15:17;25.83;;;16.92;;
18905;SDS011;9585;51.018;4.282;2023-05-10T04:17:45;25.10;;;16.40;;
18905;SDS011;9585;51.018;4.282;2023-05-10T04:20:12;24.90;;;17.08;;
18905;SDS011;9585;51.018;4.282;2023-05-10T04:22:47;28.25;;;16.80;;
18905;SDS011;9585;51.018;4.282;2023-05-10T04:25:14;24.58;;;17.27;;
18905;SDS011;9585;51.018;4.282;2023-05-10T04:27:44;22.05;;;15.68;;
18905;SDS011;9585;51.018;4.282;2023-05-10T04:30:12;25.42;;;17.15;;
18905;SDS011;9585;51.018;4.282;2023-05-10T04:32:40;21.00;;;15.35;;
18905;SDS011;9585;51.018;4.282;2023-05-10T04:35:08;23.15;;;15.60;;
18905;SDS011;9585;51.018;4.282;2023-05-10T04:37:36;19.60;;;14.73;;
18905;SDS011;9585;51.018;4.282;2023-05-10T04:40:04;25.02;;;16.27;;
18905;SDS011;9585;51.018;4.282;2023-05-10T04:42:33;22.90;;;15.63;;
18905;SDS011;9585;51.018;4.282;2023-05-10T04:45:03;21.73;;;15.07;;
18905;SDS011;9585;51.018;4.282;2023-05-10T04:47:32;20.80;;;13.98;;
18905;SDS011;9585;51.018;4.282;2023-05-10T04:49:59;22.70;;;14.27;;
18905;SDS011;9585;51.018;4.282;2023-05-10T04:52:27;24.05;;;15.88;;
18905;SDS011;9585;51.018;4.282;2023-05-10T04:54:55;22.20;;;15.43;;
18905;SDS011;9585;51.018;4.282;2023-05-10T04:57:23;21.52;;;15.07;;
18905;SDS011;9585;51.018;4.282;2023-05-10T04:59:51;19.85;;;14.50;;
18905;SDS011;9585;51.018;4.282;2023-05-10T05:02:21;21.83;;;14.68;;
18905;SDS011;9585;51.018;4.282;2023-05-10T05:04:49;19.55;;;13.77;;
18905;SDS011;9585;51.018;4.282;2023-05-10T05:07:17;20.08;;;13.32;;
18905;SDS011;9585;51.018;4.282;2023-05-10T05:09:47;17.80;;;12.60;;
18905;SDS011;9585;51.018;4.282;2023-05-10T05:12:19;19.20;;;14.23;;
18905;SDS011;9585;51.018;4.282;2023-05-10T05:15:00;20.58;;;14.75;;
18905;SDS011;9585;51.018;4.282;2023-05-10T05:17:31;17.45;;;13.55;;
18905;SDS011;9585;51.018;4.282;2023-05-10T05:19:59;23.35;;;15.82;;
18905;SDS011;9585;51.018;4.282;2023-05-10T05:22:44;22.40;;;16.17;;
18905;SDS011;9585;51.018;4.282;2023-05-10T05:25:11;21.63;;;16.05;;
18905;SDS011;9585;51.018;4.282;2023-05-10T05:27:40;20.77;;;14.35;;
18905;SDS011;9585;51.018;4.282;2023-05-10T05:30:09;22.63;;;16.33;;
18905;SDS011;9585;51.018;4.282;2023-05-10T05:32:40;19.38;;;14.60;;
18905;SDS011;9585;51.018;4.282;2023-05-10T05:35:15;20.05;;;14.82;;
18905;SDS011;9585;51.018;4.282;2023-05-10T05:37:46;19.85;;;15.25;;
18905;SDS011;9585;51.018;4.282;2023-05-10T05:40:16;21.17;;;15.68;;
18905;SDS011;9585;51.018;4.282;2023-05-10T05:42:45;20.30;;;15.00;;
18905;SDS011;9585;51.018;4.282;2023-05-10T05:45:21;18.25;;;13.50;;
18905;SDS011;9585;51.018;4.282;2023-05-10T05:50:50;20.45;;;14.35;;
18905;SDS011;9585;51.018;4.282;2023-05-10T05:53:23;21.17;;;15.43;;
18905;SDS011;9585;51.018;4.282;2023-05-10T05:55:55;18.45;;;15.07;;
18905;SDS011;9585;51.018;4.282;2023-05-10T05:58:40;19.20;;;14.60;;
18905;SDS011;9585;51.018;4.282;2023-05-10T06:01:07;16.15;;;13.43;;
18905;SDS011;9585;51.018;4.282;2023-05-10T06:03:35;16.98;;;13.82;;
18905;SDS011;9585;51.018;4.282;2023-05-10T06:06:13;15.70;;;12.77;;
18905;SDS011;9585;51.018;4.282;2023-05-10T06:08:41;16.05;;;13.38;;
18905;SDS011;9585;51.018;4.282;2023-05-10T06:11:09;17.05;;;13.50;;
18905;SDS011;9585;51.018;4.282;2023-05-10T06:13:36;16.70;;;13.77;;
18905;SDS011;9585;51.018;4.282;2023-05-10T06:16:10;17.52;;;13.88;;
18905;SDS011;9585;51.018;4.282;2023-05-10T06:18:38;18.52;;;13.93;;
18905;SDS011;9585;51.018;4.282;2023-05-10T06:21:08;19.98;;;14.77;;
18905;SDS011;9585;51.018;4.282;2023-05-10T06:23:36;18.73;;;14.55;;
18905;SDS011;9585;51.018;4.282;2023-05-10T06:26:04;15.98;;;13.65;;
18905;SDS011;9585;51.018;4.282;2023-05-10T06:28:35;17.15;;;13.32;;
18905;SDS011;9585;51.018;4.282;2023-05-10T06:31:07;17.02;;;13.52;;
18905;SDS011;9585;51.018;4.282;2023-05-10T06:33:36;16.92;;;13.57;;
18905;SDS011;9585;51.018;4.282;2023-05-10T06:36:08;19.70;;;14.55;;
18905;SDS011;9585;51.018;4.282;2023-05-10T06:38:36;20.45;;;15.00;;
18905;SDS011;9585;51.018;4.282;2023-05-10T06:41:03;22.20;;;15.00;;
18905;SDS011;9585;51.018;4.282;2023-05-10T06:43:37;19.80;;;14.90;;
18905;SDS011;9585;51.018;4.282;2023-05-10T06:46:08;17.23;;;14.00;;
18905;SDS011;9585;51.018;4.282;2023-05-10T06:48:36;19.60;;;15.32;;
18905;SDS011;9585;51.018;4.282;2023-05-10T06:51:10;20.92;;;15.52;;
18905;SDS011;9585;51.018;4.282;2023-05-10T06:53:38;24.25;;;17.83;;
18905;SDS011;9585;51.018;4.282;2023-05-10T06:56:05;20.52;;;15.02;;
18905;SDS011;9585;51.018;4.282;2023-05-10T06:58:33;22.30;;;16.45;;
18905;SDS011;9585;51.018;4.282;2023-05-10T07:01:04;23.63;;;16.52;;
18905;SDS011;9585;51.018;4.282;2023-05-10T07:03:35;19.65;;;16.08;;
18905;SDS011;9585;51.018;4.282;2023-05-10T07:06:03;22.63;;;16.88;;
18905;SDS011;9585;51.018;4.282;2023-05-10T07:08:34;24.50;;;16.40;;
18905;SDS011;9585;51.018;4.282;2023-05-10T07:11:02;23.30;;;16.80;;
18905;SDS011;9585;51.018;4.282;2023-05-10T07:13:32;23.35;;;15.73;;
18905;SDS011;9585;51.018;4.282;2023-05-10T07:16:00;21.38;;;15.63;;
18905;SDS011;9585;51.018;4.282;2023-05-10T07:18:28;22.55;;;15.48;;
18905;SDS011;9585;51.018;4.282;2023-05-10T07:20:56;26.88;;;17.10;;
18905;SDS011;9585;51.018;4.282;2023-05-10T07:23:27;21.27;;;15.88;;
18905;SDS011;9585;51.018;4.282;2023-05-10T07:25:56;20.15;;;15.13;;
18905;SDS011;9585;51.018;4.282;2023-05-10T07:28:24;19.95;;;15.13;;
18905;SDS011;9585;51.018;4.282;2023-05-10T07:30:52;27.13;;;17.00;;
18905;SDS011;9585;51.018;4.282;2023-05-10T07:33:22;21.80;;;16.02;;
18905;SDS011;9585;51.018;4.282;2023-05-10T07:35:49;24.50;;;16.70;;
18905;SDS011;9585;51.018;4.282;2023-05-10T07:38:17;20.25;;;15.32;;
18905;SDS011;9585;51.018;4.282;2023-05-10T07:40:47;24.50;;;16.45;;
18905;SDS011;9585;51.018;4.282;2023-05-10T07:43:17;24.27;;;16.63;;
18905;SDS011;9585;51.018;4.282;2023-05-10T07:45:45;22.30;;;16.23;;
18905;SDS011;9585;51.018;4.282;2023-05-10T07:48:14;21.52;;;14.32;;
18905;SDS011;9585;51.018;4.282;2023-05-10T07:50:44;21.85;;;16.40;;
18905;SDS011;9585;51.018;4.282;2023-05-10T07:53:12;20.20;;;14.48;;
18905;SDS011;9585;51.018;4.282;2023-05-10T07:55:40;19.83;;;13.57;;
18905;SDS011;9585;51.018;4.282;2023-05-10T07:58:08;19.48;;;14.40;;
18905;SDS011;9585;51.018;4.282;2023-05-10T08:00:37;19.40;;;13.68;;
18905;SDS011;9585;51.018;4.282;2023-05-10T08:03:07;21.58;;;13.10;;
18905;SDS011;9585;51.018;4.282;2023-05-10T08:05:35;22.67;;;13.57;;
18905;SDS011;9585;51.018;4.282;2023-05-10T08:08:03;19.83;;;13.95;;
18905;SDS011;9585;51.018;4.282;2023-05-10T08:10:31;20.92;;;14.65;;
18905;SDS011;9585;51.018;4.282;2023-05-10T08:13:01;17.05;;;12.27;;
18905;SDS011;9585;51.018;4.282;2023-05-10T08:15:30;21.20;;;14.13;;
18905;SDS011;9585;51.018;4.282;2023-05-10T08:17:59;19.98;;;13.13;;
18905;SDS011;9585;51.018;4.282;2023-05-10T08:20:27;20.20;;;13.32;;
18905;SDS011;9585;51.018;4.282;2023-05-10T08:22:54;18.40;;;12.68;;
18905;SDS011;9585;51.018;4.282;2023-05-10T08:25:22;22.05;;;13.20;;
18905;SDS011;9585;51.018;4.282;2023-05-10T08:27:49;18.77;;;12.77;;
18905;SDS011;9585;51.018;4.282;2023-05-10T08:30:17;20.17;;;13.27;;
18905;SDS011;9585;51.018;4.282;2023-05-10T08:32:44;17.73;;;13.98;;
18905;SDS011;9585;51.018;4.282;2023-05-10T08:35:14;15.48;;;11.77;;
18905;SDS011;9585;51.018;4.282;2023-05-10T08:37:41;16.80;;;12.30;;
18905;SDS011;9585;51.018;4.282;2023-05-10T08:40:10;15.57;;;11.13;;
18905;SDS011;9585;51.018;4.282;2023-05-10T08:42:39;16.42;;;11.13;;
18905;SDS011;9585;51.018;4.282;2023-05-10T08:45:10;14.93;;;9.32;;
18905;SDS011;9585;51.018;4.282;2023-05-10T08:47:38;14.98;;;9.00;;
18905;SDS011;9585;51.018;4.282;2023-05-10T08:50:07;12.13;;;8.45;;
18905;SDS011;9585;51.018;4.282;2023-05-10T08:52:38;12.13;;;7.70;;
18905;SDS011;9585;51.018;4.282;2023-05-10T08:55:08;13.68;;;8.23;;
18905;SDS011;9585;51.018;4.282;2023-05-10T08:57:36;14.00;;;8.75;;
18905;SDS011;9585;51.018;4.282;2023-05-10T09:00:04;12.25;;;8.50;;
18905;SDS011;9585;51.018;4.282;2023-05-10T09:02:33;13.07;;;8.32;;
18905;SDS011;9585;51.018;4.282;2023-05-10T09:05:02;12.25;;;8.38;;
18905;SDS011;9585;51.018;4.282;2023-05-10T09:07:30;12.55;;;7.75;;
18905;SDS011;9585;51.018;4.282;2023-05-10T09:10:00;12.55;;;7.82;;
18905;SDS011;9585;51.018;4.282;2023-05-10T09:12:27;14.00;;;8.45;;
18905;SDS011;9585;51.018;4.282;2023-05-10T09:14:55;13.50;;;8.93;;
18905;SDS011;9585;51.018;4.282;2023-05-10T09:17:24;15.23;;;8.60;;
18905;SDS011;9585;51.018;4.282;2023-05-10T09:19:56;11.45;;;8.48;;
18905;SDS011;9585;51.018;4.282;2023-05-10T09:22:25;13.27;;;9.15;;
18905;SDS011;9585;51.018;4.282;2023-05-10T09:25:05;12.93;;;8.75;;
18905;SDS011;9585;51.018;4.282;2023-05-10T09:27:34;12.05;;;8.23;;
18905;SDS011;9585;51.018;4.282;2023-05-10T09:30:02;14.52;;;9.27;;
18905;SDS011;9585;51.018;4.282;2023-05-10T09:32:38;15.95;;;10.05;;
18905;SDS011;9585;51.018;4.282;2023-05-10T09:35:07;14.85;;;9.18;;
18905;SDS011;9585;51.018;4.282;2023-05-10T09:37:35;14.18;;;8.80;;
18905;SDS011;9585;51.018;4.282;2023-05-10T09:40:10;13.75;;;9.52;;
18905;SDS011;9585;51.018;4.282;2023-05-10T09:42:43;16.20;;;9.32;;
18905;SDS011;9585;51.018;4.282;2023-05-10T09:45:22;14.07;;;9.68;;
18905;SDS011;9585;51.018;4.282;2023-05-10T09:47:51;15.68;;;9.40;;
18905;SDS011;9585;51.018;4.282;2023-05-10T09:50:23;13.48;;;9.32;;
18905;SDS011;9585;51.018;4.282;2023-05-10T09:52:51;13.15;;;9.00;;
18905;SDS011;9585;51.018;4.282;2023-05-10T09:55:22;12.75;;;9.35;;
18905;SDS011;9585;51.018;4.282;2023-05-10T09:57:58;12.02;;;8.93;;
18905;SDS011;9585;51.018;4.282;2023-05-10T10:00:27;12.27;;;8.52;;
18905;SDS011;9585;51.018;4.282;2023-05-10T10:02:55;11.68;;;8.68;;
18905;SDS011;9585;51.018;4.282;2023-05-10T10:05:27;13.35;;;8.73;;
18905;SDS011;9585;51.018;4.282;2023-05-10T10:07:56;13.20;;;8.57;;
18905;SDS011;9585;51.018;4.282;2023-05-10T10:10:27;11.93;;;8.55;;
18905;SDS011;9585;51.018;4.282;2023-05-10T10:12:55;11.00;;;7.75;;
18905;SDS011;9585;51.018;4.282;2023-05-10T10:15:23;12.45;;;8.75;;
18905;SDS011;9585;51.018;4.282;2023-05-10T10:17:51;9.93;;;8.02;;
18905;SDS011;9585;51.018;4.282;2023-05-10T10:20:20;9.45;;;7.60;;
18905;SDS011;9585;51.018;4.282;2023-05-10T10:22:50;11.07;;;7.00;;
18905;SDS011;9585;51.018;4.282;2023-05-10T10:25:18;8.27;;;6.70;;
18905;SDS011;9585;51.018;4.282;2023-05-10T10:27:54;8.38;;;6.40;;
18905;SDS011;9585;51.018;4.282;2023-05-10T10:30:41;9.07;;;6.28;;
18905;SDS011;9585;51.018;4.282;2023-05-10T10:33:18;7.32;;;6.18;;
18905;SDS011;9585;51.018;4.282;2023-05-10T10:36:15;7.03;;;5.70;;
18905;SDS011;9585;51.018;4.282;2023-05-10T10:41:31;7.43;;;6.13;;
18905;SDS011;9585;51.018;4.282;2023-05-10T10:47:01;7.07;;;5.80;;
18905;SDS011;9585;51.018;4.282;2023-05-10T10:49:44;7.60;;;6.10;;
18905;SDS011;9585;51.018;4.282;2023-05-10T10:52:24;8.40;;;6.70;;
18905;SDS011;9585;51.018;4.282;2023-05-10T10:54:58;8.52;;;6.47;;
18905;SDS011;9585;51.018;4.282;2023-05-10T10:57:27;8.07;;;6.38;;
18905;SDS011;9585;51.018;4.282;2023-05-10T11:02:53;8.00;;;6.80;;
18905;SDS011;9585;51.018;4.282;2023-05-10T11:05:24;11.93;;;7.43;;
18905;SDS011;9585;51.018;4.282;2023-05-10T11:08:06;8.23;;;6.47;;
18905;SDS011;9585;51.018;4.282;2023-05-10T11:10:36;8.80;;;6.90;;
18905;SDS011;9585;51.018;4.282;2023-05-10T11:13:08;8.38;;;7.35;;
18905;SDS011;9585;51.018;4.282;2023-05-10T11:15:43;7.88;;;7.05;;
18905;SDS011;9585;51.018;4.282;2023-05-10T11:18:23;8.25;;;7.45;;
18905;SDS011;9585;51.018;4.282;2023-05-10T11:20:54;10.65;;;8.63;;
18905;SDS011;9585;51.018;4.282;2023-05-10T11:23:32;8.90;;;7.22;;
18905;SDS011;9585;51.018;4.282;2023-05-10T11:26:21;10.60;;;7.75;;
18905;SDS011;9585;51.018;4.282;2023-05-10T11:28:51;10.07;;;7.82;;
18905;SDS011;9585;51.018;4.282;2023-05-10T11:31:23;9.98;;;8.05;;
18905;SDS011;9585;51.018;4.282;2023-05-10T11:33:52;8.07;;;7.18;;
18905;SDS011;9585;51.018;4.282;2023-05-10T11:36:21;11.73;;;8.18;;
18905;SDS011;9585;51.018;4.282;2023-05-10T11:38:51;9.93;;;7.85;;
18905;SDS011;9585;51.018;4.282;2023-05-10T11:41:20;9.95;;;8.48;;
18905;SDS011;9585;51.018;4.282;2023-05-10T11:43:49;8.70;;;7.53;;
18905;SDS011;9585;51.018;4.282;2023-05-10T11:46:23;10.65;;;8.13;;
18905;SDS011;9585;51.018;4.282;2023-05-10T11:48:52;10.18;;;7.70;;
18905;SDS011;9585;51.018;4.282;2023-05-10T11:51:29;10.52;;;8.50;;
18905;SDS011;9585;51.018;4.282;2023-05-10T11:53:59;9.93;;;8.40;;
18905;SDS011;9585;51.018;4.282;2023-05-10T11:56:26;10.43;;;8.00;;
18905;SDS011;9585;51.018;4.282;2023-05-10T11:58:54;9.52;;;7.85;;
18905;SDS011;9585;51.018;4.282;2023-05-10T12:01:25;9.15;;;7.50;;
18905;SDS011;9585;51.018;4.282;2023-05-10T12:03:54;9.25;;;7.57;;
18905;SDS011;9585;51.018;4.282;2023-05-10T12:06:25;9.32;;;7.68;;
18905;SDS011;9585;51.018;4.282;2023-05-10T12:08:54;8.57;;;6.93;;
18905;SDS011;9585;51.018;4.282;2023-05-10T12:11:25;10.52;;;8.18;;
18905;SDS011;9585;51.018;4.282;2023-05-10T12:13:57;8.73;;;7.00;;
18905;SDS011;9585;51.018;4.282;2023-05-10T12:16:29;10.93;;;7.28;;
18905;SDS011;9585;51.018;4.282;2023-05-10T12:18:58;8.30;;;7.15;;
18905;SDS011;9585;51.018;4.282;2023-05-10T12:21:30;8.30;;;7.22;;
18905;SDS011;9585;51.018;4.282;2023-05-10T12:23:59;8.30;;;7.05;;
18905;SDS011;9585;51.018;4.282;2023-05-10T12:26:28;9.23;;;6.93;;
18905;SDS011;9585;51.018;4.282;2023-05-10T12:29:11;9.70;;;6.90;;
18905;SDS011;9585;51.018;4.282;2023-05-10T12:31:51;8.23;;;6.93;;
18905;SDS011;9585;51.018;4.282;2023-05-10T12:34:22;7.97;;;7.10;;
18905;SDS011;9585;51.018;4.282;2023-05-10T12:36:53;8.00;;;6.65;;
18905;SDS011;9585;51.018;4.282;2023-05-10T12:39:24;8.32;;;6.45;;
18905;SDS011;9585;51.018;4.282;2023-05-10T12:41:52;9.63;;;6.60;;
18905;SDS011;9585;51.018;4.282;2023-05-10T12:44:23;7.88;;;6.78;;
18905;SDS011;9585;51.018;4.282;2023-05-10T12:46:52;9.10;;;7.25;;
18905;SDS011;9585;51.018;4.282;2023-05-10T12:49:21;7.68;;;6.30;;
18905;SDS011;9585;51.018;4.282;2023-05-10T12:51:56;9.20;;;7.05;;
18905;SDS011;9585;51.018;4.282;2023-05-10T12:54:24;7.95;;;7.03;;
18905;SDS011;9585;51.018;4.282;2023-05-10T12:56:55;8.43;;;7.43;;
18905;SDS011;9585;51.018;4.282;2023-05-10T12:59:23;8.40;;;6.80;;
18905;SDS011;9585;51.018;4.282;2023-05-10T13:01:56;8.93;;;7.30;;
18905;SDS011;9585;51.018;4.282;2023-05-10T13:04:26;8.52;;;7.22;;
18905;SDS011;9585;51.018;4.282;2023-05-10T13:06:54;9.43;;;7.35;;
18905;SDS011;9585;51.018;4.282;2023-05-10T13:09:24;10.07;;;7.65;;
18905;SDS011;9585;51.018;4.282;2023-05-10T13:11:55;9.25;;;7.80;;
18905;SDS011;9585;51.018;4.282;2023-05-10T13:14:23;9.93;;;7.68;;
18905;SDS011;9585;51.018;4.282;2023-05-10T13:16:52;9.55;;;7.95;;
18905;SDS011;9585;51.018;4.282;2023-05-10T13:19:21;10.13;;;7.60;;
18905;SDS011;9585;51.018;4.282;2023-05-10T13:21:49;10.35;;;7.95;;
18905;SDS011;9585;51.018;4.282;2023-05-10T13:24:17;7.60;;;6.80;;
18905;SDS011;9585;51.018;4.282;2023-05-10T13:26:45;10.10;;;7.50;;
18905;SDS011;9585;51.018;4.282;2023-05-10T13:29:13;9.65;;;8.00;;
18905;SDS011;9585;51.018;4.282;2023-05-10T13:31:42;10.48;;;8.13;;
18905;SDS011;9585;51.018;4.282;2023-05-10T13:34:10;9.68;;;8.65;;
18905;SDS011;9585;51.018;4.282;2023-05-10T13:36:41;8.68;;;7.50;;
18905;SDS011;9585;51.018;4.282;2023-05-10T13:39:14;8.98;;;7.53;;
18905;SDS011;9585;51.018;4.282;2023-05-10T13:41:51;9.98;;;8.20;;
18905;SDS011;9585;51.018;4.282;2023-05-10T13:44:22;7.63;;;6.50;;
18905;SDS011;9585;51.018;4.282;2023-05-10T13:46:59;10.68;;;8.68;;
18905;SDS011;9585;51.018;4.282;2023-05-10T13:49:29;11.80;;;8.25;;
18905;SDS011;9585;51.018;4.282;2023-05-10T13:51:59;8.82;;;7.70;;
18905;SDS011;9585;51.018;4.282;2023-05-10T13:54:32;9.77;;;7.97;;
18905;SDS011;9585;51.018;4.282;2023-05-10T13:57:08;10.02;;;8.70;;
18905;SDS011;9585;51.018;4.282;2023-05-10T13:59:44;8.40;;;7.43;;
18905;SDS011;9585;51.018;4.282;2023-05-10T14:02:26;11.48;;;9.20;;
18905;SDS011;9585;51.018;4.282;2023-05-10T14:04:54;10.70;;;9.20;;
18905;SDS011;9585;51.018;4.282;2023-05-10T14:07:23;10.25;;;9.15;;
18905;SDS011;9585;51.018;4.282;2023-05-10T14:09:51;9.90;;;8.57;;
18905;SDS011;9585;51.018;4.282;2023-05-10T14:12:21;11.73;;;8.40;;
18905;SDS011;9585;51.018;4.282;2023-05-10T14:14:48;13.68;;;9.90;;
18905;SDS011;9585;51.018;4.282;2023-05-10T14:17:17;11.82;;;9.60;;
18905;SDS011;9585;51.018;4.282;2023-05-10T14:19:45;12.45;;;9.63;;
18905;SDS011;9585;51.018;4.282;2023-05-10T14:22:17;10.18;;;9.07;;
18905;SDS011;9585;51.018;4.282;2023-05-10T14:24:54;10.27;;;9.25;;
18905;SDS011;9585;51.018;4.282;2023-05-10T14:27:33;11.50;;;10.02;;
18905;SDS011;9585;51.018;4.282;2023-05-10T14:30:02;11.98;;;9.95;;
18905;SDS011;9585;51.018;4.282;2023-05-10T14:32:35;10.27;;;9.00;;
18905;SDS011;9585;51.018;4.282;2023-05-10T14:35:10;14.43;;;10.18;;
18905;SDS011;9585;51.018;4.282;2023-05-10T14:37:43;12.70;;;9.75;;
18905;SDS011;9585;51.018;4.282;2023-05-10T14:40:13;11.00;;;9.55;;
18905;SDS011;9585;51.018;4.282;2023-05-10T14:42:42;14.52;;;10.98;;
18905;SDS011;9585;51.018;4.282;2023-05-10T14:45:13;12.23;;;9.95;;
18905;SDS011;9585;51.018;4.282;2023-05-10T14:47:40;12.18;;;9.95;;
18905;SDS011;9585;51.018;4.282;2023-05-10T14:50:08;12.48;;;8.50;;
18905;SDS011;9585;51.018;4.282;2023-05-10T14:52:36;10.85;;;8.10;;
18905;SDS011;9585;51.018;4.282;2023-05-10T14:55:03;11.98;;;8.38;;
18905;SDS011;9585;51.018;4.282;2023-05-10T14:57:33;14.68;;;8.85;;
18905;SDS011;9585;51.018;4.282;2023-05-10T15:00:03;11.80;;;8.60;;
18905;SDS011;9585;51.018;4.282;2023-05-10T15:02:32;11.20;;;8.15;;
18905;SDS011;9585;51.018;4.282;2023-05-10T15:05:00;12.60;;;8.30;;
18905;SDS011;9585;51.018;4.282;2023-05-10T15:07:27;10.55;;;8.27;;
18905;SDS011;9585;51.018;4.282;2023-05-10T15:09:56;11.48;;;7.97;;
18905;SDS011;9585;51.018;4.282;2023-05-10T15:12:24;11.23;;;8.43;;
18905;SDS011;9585;51.018;4.282;2023-05-10T15:14:56;11.02;;;8.82;;
18905;SDS011;9585;51.018;4.282;2023-05-10T15:17:24;13.40;;;8.98;;
18905;SDS011;9585;51.018;4.282;2023-05-10T15:20:00;13.75;;;9.38;;
18905;SDS011;9585;51.018;4.282;2023-05-10T15:22:29;10.25;;;7.55;;